Time;durP1;ratioP1;P1;durP2;ratioP2;P2;SDS_P1;SDS_P2;PMS_P1;PMS_P2;Temp;Humidity;BMP_temperature;BMP_pressure;BME280_temperature;BME280_humidity;BME280_pressure;Samples;Min_cycle;Max_cycle;Signal;HPM_P1;HPM_P2
2022/11/11 00:01:41;;;;;;;109.37;63.40;;;;;;;4.78;81.03;101725.66;2092586;85;31013;-66
2022/11/11 00:04:43;;;;;;;121.25;67.70;;;;;;;4.75;81.11;101726.98;2092569;85;32950;-66
2022/11/11 00:07:45;;;;;;;106.70;62.23;;;;;;;4.71;81.08;101726.12;2092579;85;29788;-66
2022/11/11 00:10:46;;;;;;;105.12;58.48;;;;;;;4.68;81.00;101715.50;2092726;85;27725;-66
2022/11/11 00:13:48;;;;;;;97.92;59.45;;;;;;;4.65;81.05;101719.94;2092453;85;28636;-66
2022/11/11 00:26:50;;;;;;;94.35;54.38;;;;;;;4.52;81.11;101707.13;2092665;84;27681;-65
2022/11/11 00:29:52;;;;;;;89.97;54.10;;;;;;;4.48;81.18;101703.61;2092524;85;28645;-67
2022/11/11 00:32:54;;;;;;;85.80;53.85;;;;;;;4.45;81.22;101703.60;2092505;83;31069;-68
2022/11/11 00:35:56;;;;;;;93.20;54.53;;;;;;;4.43;81.25;101713.33;2092397;84;33001;-63
2022/11/11 00:38:57;;;;;;;101.40;61.23;;;;;;;4.41;81.31;101701.41;2092782;85;29053;-64
2022/11/11 00:41:59;;;;;;;107.83;61.65;;;;;;;4.40;81.36;101702.29;2092953;85;27716;-66
2022/11/11 00:45:01;;;;;;;96.65;59.08;;;;;;;4.37;81.32;101700.96;2092888;85;28668;-65
2022/11/11 00:51:23;;;;;;;93.67;55.45;;;;;;;4.33;81.39;101696.53;2092408;85;33874;-65
2022/11/11 00:54:24;;;;;;;95.53;57.55;;;;;;;4.32;81.48;101702.73;2092630;85;29791;-71
2022/11/11 00:57:26;;;;;;;96.22;58.83;;;;;;;4.29;81.48;101698.77;2092806;85;27712;-66
2022/11/11 01:00:27;;;;;;;92.82;56.00;;;;;;;4.28;81.43;101697.00;2092718;84;29467;-65
2022/11/11 01:03:29;;;;;;;98.30;57.00;;;;;;;4.25;81.43;101707.61;2092390;85;31063;-64
2022/11/11 01:06:31;;;;;;;93.70;55.50;;;;;;;4.22;81.41;101711.13;2092632;84;33000;-64
2022/11/11 01:09:32;;;;;;;86.10;54.35;;;;;;;4.19;81.39;101708.50;2092276;85;29943;-65
2022/11/11 01:12:34;;;;;;;93.20;55.43;;;;;;;4.16;81.45;101701.87;2092646;85;27799;-64
2022/11/11 01:15:36;;;;;;;85.85;52.73;;;;;;;4.13;81.42;101702.33;2092655;85;28635;-65
2022/11/11 01:18:37;;;;;;;86.22;53.78;;;;;;;4.10;81.47;101720.00;2092589;84;31104;-64
2022/11/11 01:21:39;;;;;;;87.30;51.68;;;;;;;4.07;81.44;101713.36;2092747;84;32971;-68
2022/11/11 01:24:41;;;;;;;85.45;51.77;;;;;;;4.05;81.43;101719.56;2092679;85;29805;-65
2022/11/11 01:27:42;;;;;;;82.60;49.65;;;;;;;4.03;81.42;101721.33;2092731;85;28277;-65
2022/11/11 01:30:44;;;;;;;80.87;51.30;;;;;;;4.00;81.49;101716.02;2092658;84;28630;-68
2022/11/11 01:33:46;;;;;;;78.67;47.85;;;;;;;3.97;81.46;101721.30;2097546;84;31040;-71
2022/11/11 01:36:47;;;;;;;78.90;48.60;;;;;;;3.92;81.41;101708.92;2104988;84;32991;-68
2022/11/11 01:39:49;;;;;;;79.10;50.50;;;;;;;3.91;81.46;101712.91;2105034;84;29076;-69
2022/11/11 01:43:08;;;;;;;77.10;47.73;;;;;;;3.88;81.49;101711.58;2104658;84;27686;-66
2022/11/11 01:46:17;;;;;;;75.78;44.13;;;;;;;3.85;81.50;101711.14;2103975;84;28764;-70
2022/11/11 01:49:40;;;;;;;70.60;44.95;;;;;;;3.83;81.53;101706.70;2098983;84;31106;-67
2022/11/11 01:52:44;;;;;;;76.20;46.75;;;;;;;3.81;81.60;101696.11;2104704;84;33747;-68
2022/11/11 01:55:45;;;;;;;74.27;46.50;;;;;;;3.78;81.59;101695.67;2105276;84;29184;-69
2022/11/11 01:58:48;;;;;;;72.25;44.98;;;;;;;3.75;81.58;101693.02;2105211;84;27514;-65
2022/11/11 02:01:49;;;;;;;71.75;45.00;;;;;;;3.73;81.62;101694.78;2105012;84;28657;-71
2022/11/11 02:08:31;;;;;;;84.42;49.75;;;;;;;3.70;81.75;101695.22;2104659;84;33968;-71
2022/11/11 02:14:49;;;;;;;80.65;50.12;;;;;;;3.68;81.90;101684.59;2104978;84;28246;-68
2022/11/11 02:17:51;;;;;;;88.58;50.35;;;;;;;3.69;81.98;101688.15;2104974;84;28705;-70
2022/11/11 02:20:53;;;;;;;82.37;48.38;;;;;;;3.68;82.03;101688.58;2104956;84;30997;-73
2022/11/11 02:24:05;;;;;;;77.92;48.35;;;;;;;3.69;82.05;101688.15;2104918;84;32963;-69
2022/11/11 02:27:10;;;;;;;84.95;51.88;;;;;;;3.68;82.03;101681.08;2104109;84;29033;-67
2022/11/11 02:30:15;;;;;;;81.65;50.25;;;;;;;3.68;82.11;101697.84;2104741;84;27693;-71
2022/11/11 02:33:17;;;;;;;78.57;49.98;;;;;;;3.67;82.13;101705.36;2103383;83;29548;-68
2022/11/11 02:36:19;;;;;;;78.97;49.80;;;;;;;3.67;82.12;101704.48;2092587;84;31046;-67
2022/11/11 02:39:20;;;;;;;76.17;49.33;;;;;;;3.66;82.16;101710.20;2092654;85;33001;-69
2022/11/11 02:42:23;;;;;;;76.87;48.30;;;;;;;3.67;82.21;101715.09;2092572;85;29016;-67
2022/11/11 02:45:25;;;;;;;86.90;50.78;;;;;;;3.65;82.23;101713.31;2092660;84;27697;-68
2022/11/11 02:48:29;;;;;;;85.97;49.33;;;;;;;3.66;82.31;101718.16;2092359;84;28933;-67
2022/11/11 02:51:31;;;;;;;80.90;49.88;;;;;;;3.65;82.33;101710.66;2092464;85;31200;-66
2022/11/11 02:54:32;;;;;;;76.12;49.03;;;;;;;3.66;82.32;101700.94;2092504;85;33715;-67
2022/11/11 02:57:34;;;;;;;78.60;48.15;;;;;;;3.65;82.34;101693.44;2092479;85;29011;-67
2022/11/11 03:00:36;;;;;;;77.85;46.95;;;;;;;3.67;82.47;101693.43;2092685;84;27636;-66
2022/11/11 03:03:37;;;;;;;77.65;48.23;;;;;;;3.69;82.44;101696.10;2092583;84;28806;-70
2022/11/11 03:06:41;;;;;;;84.37;47.35;;;;;;;3.68;82.49;101691.22;2092472;85;31007;-66
2022/11/11 03:09:44;;;;;;;85.92;49.65;;;;;;;3.70;82.51;101685.95;2091997;85;29533;-66
2022/11/11 03:12:49;;;;;;;89.07;48.38;;;;;;;3.72;82.62;101691.68;2092196;85;29387;-69
2022/11/11 03:15:51;;;;;;;80.45;47.35;;;;;;;3.76;82.70;101696.53;2092757;85;27554;-65
2022/11/11 03:18:52;;;;;;;86.00;48.10;;;;;;;3.78;82.81;101695.67;2092432;85;28636;-66
2022/11/11 03:21:54;;;;;;;80.40;47.95;;;;;;;3.81;82.78;101705.39;2092449;84;30989;-68
2022/11/11 03:28:18;;;;;;;87.00;47.78;;;;;;;3.88;83.10;101704.95;2092392;85;30158;-69
2022/11/11 03:31:20;;;;;;;83.67;49.08;;;;;;;3.94;83.14;101712.92;2092589;85;27641;-67
2022/11/11 03:34:23;;;;;;;82.37;49.15;;;;;;;4.00;83.24;101713.36;2092239;83;28633;-66
2022/11/11 03:40:46;;;;;;;83.80;49.53;;;;;;;4.11;83.37;101720.87;2092132;84;33830;-65
2022/11/11 03:43:47;;;;;;;87.57;50.92;;;;;;;4.16;83.40;101720.44;2092396;84;30096;-66
2022/11/11 03:46:49;;;;;;;77.45;46.88;;;;;;;4.22;83.52;101723.52;2092434;84;27581;-65
2022/11/11 03:49:51;;;;;;;86.22;50.73;;;;;;;4.27;83.63;101725.74;2092478;85;28751;-65
2022/11/11 03:52:52;;;;;;;88.00;52.88;;;;;;;4.33;83.59;101727.05;2092489;85;31004;-65
2022/11/11 03:55:54;;;;;;;82.47;48.87;;;;;;;4.38;83.64;101723.09;2092503;84;32996;-69
2022/11/11 03:58:56;;;;;;;82.17;50.08;;;;;;;4.44;83.69;101732.34;2092524;85;29313;-69
2022/11/11 04:11:57;;;;;;;90.32;52.38;;;;;;;4.55;83.63;101734.53;2092781;84;32991;-68
2022/11/11 04:21:41;;;;;;;92.88;51.33;;;;;;;4.62;83.61;101750.47;2092482;85;27717;-68
2022/11/11 04:21:42;;;;;;;102.67;58.92;;;;;;;4.63;83.58;101750.48;2089130;85;28660;-69
2022/11/11 04:31:25;;;;;;;104.47;58.50;;;;;;;4.68;83.55;101747.81;2092379;85;29539;-66
2022/11/11 04:34:27;;;;;;;105.90;61.30;;;;;;;4.67;83.54;101752.22;2094290;84;27740;-70
2022/11/11 04:37:34;;;;;;;106.52;58.40;;;;;;;4.68;83.48;101753.99;2100083;84;28732;-70
2022/11/11 04:47:16;;;;;;;111.47;59.67;;;;;;;4.69;83.42;101746.92;2100059;84;30228;-68
2022/11/11 04:50:18;;;;;;;107.65;59.25;;;;;;;4.68;83.34;101747.36;2100028;84;27759;-67
2022/11/11 04:53:19;;;;;;;101.72;56.15;;;;;;;4.68;83.26;101753.13;2100590;84;28810;-74
2022/11/11 04:59:33;;;;;;;98.17;55.50;;;;;;;4.65;83.29;101755.77;2058050;86;32938;-68
2022/11/11 05:09:17;;;;;;;101.00;58.42;;;;;;;4.63;83.22;101735.88;2058184;86;28882;-69
2022/11/11 05:12:19;;;;;;;96.90;54.58;;;;;;;4.60;83.21;101729.25;2058205;86;32006;-68
2022/11/11 05:22:19;;;;;;;90.55;52.35;;;;;;;4.58;83.31;101721.73;1989867;89;27725;-67
2022/11/11 05:25:32;;;;;;;87.70;50.90;;;;;;;4.59;83.37;101729.23;1990071;89;28674;-66
2022/11/11 05:28:33;;;;;;;82.15;50.55;;;;;;;4.57;83.32;101729.25;1989849;89;31079;-66
2022/11/11 05:31:35;;;;;;;77.82;48.40;;;;;;;4.56;83.23;101735.44;1989847;89;33740;-68
2022/11/11 05:34:37;;;;;;;84.15;50.38;;;;;;;4.56;83.32;101739.42;1990272;89;29506;-69
2022/11/11 05:37:41;;;;;;;83.00;46.48;;;;;;;4.55;83.35;101730.55;2021122;87;27750;-67
2022/11/11 05:40:42;;;;;;;77.03;47.20;;;;;;;4.55;83.33;101740.30;1961296;90;28813;-69
2022/11/11 05:43:44;;;;;;;75.50;46.98;;;;;;;4.55;83.39;101741.17;1961245;90;31207;-68
2022/11/11 05:46:45;;;;;;;80.22;47.90;;;;;;;4.55;83.36;101735.86;1961232;90;32945;-65
2022/11/11 05:49:47;;;;;;;76.72;44.48;;;;;;;4.56;83.47;101742.94;2012022;86;29704;-66
2022/11/11 05:52:49;;;;;;;65.17;41.53;;;;;;;4.58;83.47;101741.63;2029080;86;27709;-66
2022/11/11 05:59:07;;;;;;;37.73;24.67;;;;;;;4.63;83.73;101744.27;1967638;90;31211;-67
2022/11/11 06:02:09;;;;;;;32.00;20.90;;;;;;;4.68;84.06;101743.83;1968828;90;32956;-66
2022/11/11 06:05:10;;;;;;;36.33;20.97;;;;;;;4.74;84.35;101754.42;1968782;90;29342;-66
2022/11/11 06:08:12;;;;;;;32.17;18.90;;;;;;;4.81;84.56;101764.16;1968864;90;27794;-68
2022/11/11 06:11:14;;;;;;;35.58;19.37;;;;;;;4.89;84.66;101771.20;1968723;90;28683;-65
2022/11/11 06:14:16;;;;;;;34.58;19.05;;;;;;;4.96;84.72;101772.55;1968922;90;31049;-66
2022/11/11 06:17:17;;;;;;;30.02;18.77;;;;;;;5.04;84.75;101780.48;1968660;90;32935;-66
2022/11/11 06:20:19;;;;;;;29.25;17.52;;;;;;;5.10;84.77;101789.75;1968842;90;29328;-66
2022/11/11 06:23:20;;;;;;;33.05;17.57;;;;;;;5.18;84.81;101775.11;1969026;90;27833;-66
2022/11/11 06:26:22;;;;;;;27.70;17.98;;;;;;;5.24;84.84;101772.45;1968727;90;28774;-66
2022/11/11 06:29:24;;;;;;;27.15;17.77;;;;;;;5.31;84.93;101769.32;1968813;90;31123;-66
2022/11/11 06:32:25;;;;;;;29.32;17.37;;;;;;;5.40;85.03;101767.94;1968835;90;32957;-67
2022/11/11 06:35:27;;;;;;;30.57;18.52;;;;;;;5.48;85.14;101769.23;1968610;88;29319;-66
2022/11/11 06:38:28;;;;;;;27.77;18.12;;;;;;;5.56;85.20;101775.84;1968923;90;27808;-67
2022/11/11 06:41:30;;;;;;;29.60;18.57;;;;;;;5.64;85.29;101778.03;1968739;90;29463;-67
2022/11/11 06:44:32;;;;;;;33.63;18.55;;;;;;;5.73;85.36;101777.09;1968843;90;31033;-67
2022/11/11 06:47:33;;;;;;;33.33;17.65;;;;;;;5.81;85.41;101779.71;1968826;90;33005;-67
2022/11/11 06:50:35;;;;;;;33.55;19.42;;;;;;;5.91;85.46;101784.97;1968671;90;30455;-67
2022/11/11 06:53:37;;;;;;;26.55;17.32;;;;;;;5.99;85.50;101780.93;1968515;90;27815;-66
2022/11/11 06:56:39;;;;;;;30.35;17.90;;;;;;;6.08;85.53;101795.52;2041849;86;28662;-67
2022/11/11 06:59:40;;;;;;;26.20;17.55;;;;;;;6.17;85.55;101785.26;2051541;86;31053;-68
2022/11/11 07:02:42;;;;;;;31.37;18.55;;;;;;;6.26;85.58;101784.31;2051355;86;33213;-66
2022/11/11 07:05:44;;;;;;;26.50;18.50;;;;;;;6.36;85.60;101774.05;2051459;86;28751;-67
2022/11/11 07:08:46;;;;;;;37.58;18.77;;;;;;;6.46;85.65;101768.63;2051498;86;27714;-68
2022/11/11 07:11:47;;;;;;;29.65;18.62;;;;;;;6.55;85.58;101763.20;2051657;86;28696;-67
2022/11/11 07:14:49;;;;;;;31.17;20.00;;;;;;;6.65;85.65;101762.67;2051409;86;31022;-66
2022/11/11 07:17:51;;;;;;;33.23;19.45;;;;;;;6.74;85.62;101759.04;2051494;86;32952;-66
2022/11/11 07:20:52;;;;;;;36.45;20.68;;;;;;;6.83;85.62;101760.30;2051654;86;29477;-66
2022/11/11 07:23:54;;;;;;;35.92;20.85;;;;;;;6.94;85.67;101764.19;2051627;86;27647;-66
2022/11/11 07:26:56;;;;;;;32.63;19.32;;;;;;;7.04;85.69;101763.60;2051575;86;28650;-66
2022/11/11 07:29:57;;;;;;;34.05;19.52;;;;;;;7.14;85.67;101771.48;2051139;86;31340;-67
2022/11/11 07:32:59;;;;;;;31.12;18.77;;;;;;;7.25;85.71;101772.69;2051424;86;33116;-68
2022/11/11 07:36:01;;;;;;;32.93;19.37;;;;;;;7.37;85.73;101771.66;2062995;85;29299;-69
2022/11/11 07:39:03;;;;;;;35.90;19.05;;;;;;;7.50;85.80;101761.73;2077933;85;27682;-67
2022/11/11 07:42:04;;;;;;;30.00;18.52;;;;;;;7.61;85.73;101765.59;2077758;85;28699;-68
2022/11/11 07:45:07;;;;;;;29.25;19.27;;;;;;;7.73;85.72;101769.42;2077831;85;31046;-66
2022/11/11 07:48:09;;;;;;;28.40;18.60;;;;;;;7.85;85.65;101766.13;2077808;85;32995;-67
2022/11/11 07:51:11;;;;;;;27.85;19.42;;;;;;;7.96;85.53;101768.65;2077746;85;29312;-68
2022/11/11 07:54:12;;;;;;;33.50;18.50;;;;;;;8.05;85.38;101773.40;2077965;85;27675;-69
2022/11/11 07:57:14;;;;;;;28.27;17.87;;;;;;;8.15;85.37;101770.13;2077744;85;29468;-66
2022/11/11 08:00:17;;;;;;;35.43;17.62;;;;;;;8.24;85.26;101771.78;2077829;85;31034;-69
2022/11/11 08:03:18;;;;;;;30.72;17.80;;;;;;;8.30;85.05;101775.66;2077725;85;32971;-69
2022/11/11 08:06:21;;;;;;;35.28;18.90;;;;;;;8.39;85.20;101781.30;2077795;85;29383;-68
2022/11/11 08:09:23;;;;;;;27.13;17.02;;;;;;;8.49;85.16;101778.96;2077882;85;27718;-65
2022/11/11 08:15:45;;;;;;;33.88;17.77;;;;;;;8.68;84.99;101771.97;2077673;85;31911;-67
2022/11/11 08:18:46;;;;;;;27.93;17.50;;;;;;;8.78;84.87;101782.91;2077686;85;32949;-67
2022/11/11 08:21:48;;;;;;;25.88;17.12;;;;;;;8.89;84.88;101784.48;2077531;85;29388;-67
2022/11/11 08:24:49;;;;;;;26.50;16.05;;;;;;;8.98;84.91;101776.31;2077931;85;27703;-68
2022/11/11 08:28:02;;;;;;;24.25;16.07;;;;;;;9.08;84.79;101781.89;2077690;85;29501;-67
2022/11/11 08:31:03;;;;;;;27.30;17.07;;;;;;;9.19;84.65;101783.45;2077102;84;31064;-68
2022/11/11 08:34:05;;;;;;;24.37;15.43;;;;;;;9.30;84.67;101788.16;2144584;83;33094;-69
2022/11/11 08:37:07;;;;;;;27.20;15.10;;;;;;;9.43;84.68;101797.69;2116617;82;29475;-68
2022/11/11 08:40:09;;;;;;;27.55;15.55;;;;;;;9.57;84.47;101801.86;2104592;84;28180;-66
2022/11/11 08:43:10;;;;;;;35.55;16.97;;;;;;;9.68;84.47;101806.98;2104513;84;28638;-69
2022/11/11 08:46:12;;;;;;;25.55;15.93;;;;;;;9.81;84.45;101799.58;2074748;85;31183;-66
2022/11/11 08:49:14;;;;;;;27.20;15.60;;;;;;;9.93;84.30;101804.66;2074715;85;32957;-67
2022/11/11 08:52:16;;;;;;;27.80;15.70;;;;;;;10.03;84.07;101796.81;2074749;85;29371;-67
2022/11/11 08:55:18;;;;;;;22.45;15.18;;;;;;;10.13;83.76;101783.23;2075026;85;27654;-68
2022/11/11 08:58:20;;;;;;;26.95;15.88;;;;;;;10.23;83.84;101786.58;2074614;85;29483;-66
2022/11/11 09:01:22;;;;;;;23.45;14.23;;;;;;;10.32;83.59;101791.25;2074716;85;31235;-68
2022/11/11 09:04:24;;;;;;;26.20;16.07;;;;;;;10.43;83.30;101798.16;2074465;85;33934;-66
2022/11/11 09:07:27;;;;;;;24.43;16.73;;;;;;;10.53;83.10;101797.00;2074651;85;30276;-68
2022/11/11 09:10:28;;;;;;;30.37;17.82;;;;;;;10.62;82.96;101802.14;2074747;85;27694;-66
2022/11/11 09:13:31;;;;;;;27.77;17.62;;;;;;;10.74;83.00;101800.95;2049533;85;28697;-69
2022/11/11 09:16:32;;;;;;;24.92;15.40;;;;;;;10.84;82.75;101798.88;2074403;85;31911;-67
2022/11/11 09:19:34;;;;;;;24.87;14.63;;;;;;;10.95;82.39;101801.28;2074615;85;33751;-66
2022/11/11 09:22:45;;;;;;;21.87;13.48;;;;;;;11.05;82.38;101805.48;2074716;85;29543;-66
2022/11/11 09:25:47;;;;;;;20.08;12.85;;;;;;;11.19;82.44;101809.59;2074569;85;27713;-65
2022/11/11 09:28:49;;;;;;;21.40;12.68;;;;;;;11.33;82.34;101811.41;2074749;85;28800;-67
2022/11/11 09:31:51;;;;;;;16.52;12.50;;;;;;;11.46;82.06;101808.38;2074774;85;31165;-68
2022/11/11 09:34:54;;;;;;;20.50;12.20;;;;;;;11.60;81.97;101814.21;2074465;84;33803;-68
2022/11/11 09:37:59;;;;;;;24.77;12.88;;;;;;;11.76;81.91;101807.03;2107247;84;29545;-66
2022/11/11 09:41:15;;;;;;;;;;;;;;;11.88;81.62;101809.82;2115440;83;27776;-68
2022/11/11 09:44:40;;;;;;;17.25;9.80;;;;;;;12.00;81.09;101815.73;2113053;84;28667;-69
2022/11/11 09:48:00;;;;;;;;;;;;;;;12.11;80.98;101802.41;2115795;84;30278;-68
2022/11/11 09:51:04;;;;;;;14.75;9.28;;;;;;;12.24;80.44;101806.94;2113039;84;32953;-69
2022/11/11 09:54:09;;;;;;;17.57;9.55;;;;;;;12.37;80.65;101805.60;2113147;84;29932;-68
2022/11/11 09:57:19;;;;;;;15.72;10.65;;;;;;;12.51;80.48;101803.81;2108377;83;27660;-69
2022/11/11 10:00:25;;;;;;;17.90;10.50;;;;;;;12.65;80.08;101792.59;2112580;83;28817;-65
2022/11/11 10:03:29;;;;;;;18.60;11.70;;;;;;;12.72;79.44;101787.41;2077672;85;31034;-67
2022/11/11 10:06:31;;;;;;;19.55;10.55;;;;;;;12.86;79.21;101782.00;2077645;85;33053;-67
2022/11/11 10:09:50;;;;;;;14.28;9.18;;;;;;;13.00;78.94;101786.42;2077642;85;29327;-66
2022/11/11 10:12:57;;;;;;;14.58;9.08;;;;;;;13.15;78.75;101793.06;2077355;85;27669;-65
2022/11/11 10:16:22;;;;;;;18.55;8.98;;;;;;;13.26;78.24;101789.98;2077548;85;29480;-65
2022/11/11 10:19:29;;;;;;;;;;;;;;;13.40;77.62;101784.13;2080338;85;31058;-66
2022/11/11 10:22:38;;;;;;;11.95;7.87;;;;;;;13.50;77.49;101784.19;2077539;85;32415;-67
2022/11/11 10:25:53;;;;;;;15.00;9.35;;;;;;;13.62;77.44;101784.64;2077719;85;30114;-66
2022/11/11 10:28:55;;;;;;;14.70;8.08;;;;;;;13.73;77.10;101786.92;2077761;85;27738;-65
2022/11/11 10:32:17;;;;;;;12.55;8.43;;;;;;;13.83;77.03;101779.77;2077667;85;28817;-66
2022/11/11 10:35:24;;;;;;;15.38;8.38;;;;;;;13.91;76.40;101778.12;2077673;85;31033;-67
2022/11/11 10:38:36;;;;;;;10.98;7.53;;;;;;;14.10;75.47;101778.24;2077108;85;32450;-64
2022/11/11 10:41:45;;;;;;;15.15;8.43;;;;;;;14.10;75.47;101778.24;2066532;85;29368;-68
2022/11/11 10:44:47;;;;;;;10.95;6.58;;;;;;;14.16;75.60;101765.47;2077868;85;28137;-68
2022/11/11 10:48:06;;;;;;;15.60;7.08;;;;;;;14.24;75.21;101762.86;2077694;85;28684;-65
2022/11/11 10:51:08;;;;;;;11.85;5.97;;;;;;;14.32;75.18;101763.89;2077407;84;32924;-65
2022/11/11 10:54:15;;;;;;;11.63;6.03;;;;;;;14.46;74.46;101766.02;2077903;85;33377;-67
2022/11/11 10:57:44;;;;;;;8.75;5.40;;;;;;;14.46;74.46;101766.02;2079303;85;27836;-67
2022/11/11 11:00:47;;;;;;;10.40;5.87;;;;;;;14.32;72.99;101743.67;2079531;85;27745;-67
2022/11/11 11:04:03;;;;;;;10.23;5.62;;;;;;;14.47;73.28;101770.47;2079313;85;28732;-67
2022/11/11 11:07:07;;;;;;;10.68;6.08;;;;;;;14.51;73.18;101765.33;2078654;85;31094;-67
2022/11/11 11:10:30;;;;;;;12.75;6.12;;;;;;;14.61;73.10;101772.55;2079116;85;33298;-66
2022/11/11 11:13:42;;;;;;;8.80;5.70;;;;;;;14.67;72.94;101757.47;2079150;85;29349;-66
2022/11/11 11:16:50;;;;;;;9.48;5.60;;;;;;;14.77;72.59;101755.73;2079308;85;27915;-65
2022/11/11 11:20:17;;;;;;;10.72;6.33;;;;;;;14.79;71.87;101756.55;2079483;85;28661;-66
2022/11/11 11:23:41;;;;;;;13.35;6.12;;;;;;;14.86;71.65;101756.20;2063580;85;31043;-66
2022/11/11 11:26:47;;;;;;;13.13;6.17;;;;;;;14.86;71.65;101756.20;2070451;85;33638;-66
2022/11/11 11:29:48;;;;;;;7.80;4.78;;;;;;;14.87;71.09;101753.05;2070305;85;29423;-65
2022/11/11 11:33:02;;;;;;;9.80;4.92;;;;;;;14.92;70.56;101752.84;2057221;85;27821;-66
2022/11/11 11:36:11;;;;;;;10.90;5.70;;;;;;;14.95;70.31;101758.97;2022171;86;28730;-67
2022/11/11 11:39:13;;;;;;;11.75;5.42;;;;;;;15.01;70.78;101763.21;2040230;86;31182;-69
2022/11/11 11:42:34;;;;;;;12.40;5.05;;;;;;;15.06;70.29;101755.80;2009443;87;32942;-67
2022/11/11 11:45:36;;;;;;;11.43;5.95;;;;;;;15.10;70.37;101756.06;2038735;86;30135;-66
2022/11/11 11:48:54;;;;;;;9.85;5.15;;;;;;;15.12;69.42;101746.53;2034523;86;27743;-64
2022/11/11 11:52:03;;;;;;;7.87;4.83;;;;;;;15.15;69.76;101741.00;2037991;86;28096;-66
2022/11/11 11:55:28;;;;;;;8.48;4.83;;;;;;;15.17;69.17;101744.52;2037733;86;31028;-65
2022/11/11 11:58:59;;;;;;;9.35;5.03;;;;;;;15.17;69.18;101746.73;1999633;87;32983;-65
2022/11/11 12:02:35;;;;;;;9.98;4.97;;;;;;;15.20;68.56;101736.28;2076729;84;29369;-69
2022/11/11 12:05:46;;;;;;;;;;;;;;;15.23;68.42;101736.60;2049879;85;27897;-69
2022/11/11 12:09:11;;;;;;;11.03;4.72;;;;;;;15.23;68.20;101741.52;2033173;87;29743;-68
2022/11/11 12:12:21;;;;;;;9.60;6.15;;;;;;;15.25;68.36;101747.72;2000366;87;31883;-72
2022/11/11 12:15:42;;;;;;;10.03;5.62;;;;;;;15.28;68.34;101750.77;2003236;87;33983;-68
2022/11/11 12:19:15;;;;;;;9.35;5.35;;;;;;;15.29;67.55;101741.23;2004508;87;29406;-68
2022/11/11 12:22:30;;;;;;;9.25;5.75;;;;;;;15.31;68.07;101749.25;1949662;90;27990;-80
2022/11/11 12:26:08;;;;;;;10.98;5.80;;;;;;;15.36;67.73;101745.87;1946895;90;28738;-68
2022/11/11 12:29:27;;;;;;;12.82;6.45;;;;;;;15.39;67.71;101727.33;1941470;90;30942;-67
2022/11/11 12:32:59;;;;;;;9.75;6.60;;;;;;;15.40;67.13;101723.19;1941389;90;33173;-68
2022/11/11 12:36:33;;;;;;;13.00;7.17;;;;;;;15.43;66.94;101722.16;1948176;89;29345;-74
2022/11/11 12:39:43;;;;;;;9.55;5.78;;;;;;;15.44;66.86;101714.46;1949394;89;27797;-68
2022/11/11 12:43:08;;;;;;;10.95;5.95;;;;;;;15.45;66.75;101710.81;1973306;88;28703;-68
2022/11/11 12:46:37;;;;;;;12.68;5.58;;;;;;;15.43;66.44;101704.61;1966426;88;31128;-67
2022/11/11 12:50:02;;;;;;;13.22;6.42;;;;;;;15.41;66.58;101710.55;1971944;89;32997;-68
2022/11/11 12:53:29;;;;;;;6.92;4.78;;;;;;;15.40;66.46;101724.54;1947896;90;30235;-67
2022/11/11 12:57:01;;;;;;;12.37;5.08;;;;;;;15.34;66.05;101724.36;1941498;90;28499;-72
2022/11/11 13:00:16;;;;;;;12.45;5.35;;;;;;;15.30;65.70;101732.69;2034045;85;29484;-67
2022/11/11 13:03:47;;;;;;;10.90;5.97;;;;;;;15.21;65.62;101721.84;2038025;85;34856;-69
2022/11/11 13:07:28;;;;;;;9.30;4.75;;;;;;;15.17;65.33;101720.22;2102524;83;32979;-68
2022/11/11 13:10:47;;;;;;;8.45;4.85;;;;;;;15.10;64.94;101729.53;1994602;88;29387;-69
2022/11/11 13:14:44;;;;;;;8.60;4.62;;;;;;;15.04;65.25;101723.95;1979391;88;27595;-68
2022/11/11 13:17:46;;;;;;;10.30;5.22;;;;;;;14.98;65.34;101710.72;1963113;89;28747;-71
2022/11/11 13:21:00;;;;;;;7.83;4.70;;;;;;;14.91;64.73;101711.96;1934976;90;31450;-68
2022/11/11 13:24:03;;;;;;;5.75;3.75;;;;;;;14.83;64.68;101713.17;1943511;90;33131;-70
2022/11/11 13:27:49;;;;;;;9.78;4.60;;;;;;;14.76;64.67;101698.67;1944292;90;30184;-70
2022/11/11 13:30:59;;;;;;;7.03;4.15;;;;;;;14.68;63.98;101701.72;1845044;95;27815;-71
2022/11/11 13:34:13;;;;;;;9.38;3.87;;;;;;;14.57;64.34;101708.89;1850833;95;29864;-66
2022/11/11 13:37:32;;;;;;;7.15;4.12;;;;;;;14.44;64.09;101705.39;1850674;95;31247;-67
2022/11/11 13:40:40;;;;;;;5.78;3.55;;;;;;;14.39;64.17;101711.48;1896801;92;33706;-68
2022/11/11 13:43:48;;;;;;;8.15;3.77;;;;;;;14.29;64.12;101719.53;1910076;91;30343;-70
2022/11/11 13:46:51;;;;;;;7.55;4.90;;;;;;;14.20;64.08;101722.63;1909296;91;27777;-67
2022/11/11 13:49:57;;;;;;;7.72;4.40;;;;;;;13.91;64.67;101708.52;1917893;91;29182;-70
2022/11/11 13:53:08;;;;;;;9.10;4.42;;;;;;;13.83;64.34;101703.00;1883944;92;31034;-72
2022/11/11 13:56:10;;;;;;;17.73;5.22;;;;;;;13.83;64.34;101703.00;1918426;91;33189;-67
2022/11/11 13:59:32;;;;;;;14.25;4.30;;;;;;;13.86;64.08;101722.19;1883697;92;29511;-69
2022/11/11 14:02:35;;;;;;;8.40;5.00;;;;;;;13.78;64.27;101731.93;1951357;87;27683;-67
2022/11/11 14:05:36;;;;;;;7.83;4.75;;;;;;;13.67;64.16;101716.19;2009273;84;29476;-66
2022/11/11 14:08:53;;;;;;;8.43;5.00;;;;;;;13.60;64.40;101716.05;2070528;84;31141;-68
2022/11/11 14:12:22;;;;;;;7.47;5.12;;;;;;;13.52;64.38;101711.42;2067687;84;33174;-66
2022/11/11 14:15:51;;;;;;;7.83;4.62;;;;;;;13.44;64.60;101715.76;2072121;84;30133;-71
2022/11/11 14:18:56;;;;;;;9.95;5.90;;;;;;;13.36;64.55;101722.75;2069444;84;27817;-66
2022/11/11 14:22:05;;;;;;;6.75;5.22;;;;;;;13.27;64.74;101730.30;2071514;84;29658;-69
2022/11/11 14:25:26;;;;;;;9.83;5.40;;;;;;;13.18;64.87;101738.25;2067815;84;31036;-71
2022/11/11 14:28:34;;;;;;;11.78;7.10;;;;;;;13.09;64.93;101735.44;2071261;84;32976;-74
2022/11/11 14:31:57;;;;;;;13.90;8.40;;;;;;;12.95;65.03;101726.55;2101096;83;30166;-72
2022/11/11 14:35:16;;;;;;;15.10;8.78;;;;;;;12.86;65.16;101726.86;2097928;83;27638;-70
2022/11/11 14:38:36;;;;;;;17.60;8.68;;;;;;;12.75;65.17;101725.91;2105456;83;28673;-73
2022/11/11 14:41:52;;;;;;;13.95;8.05;;;;;;;12.63;65.18;101727.69;2105386;83;31237;-72
2022/11/11 14:44:53;;;;;;;12.93;6.87;;;;;;;12.52;65.47;101733.44;2105674;83;33118;-72
2022/11/11 14:47:56;;;;;;;12.43;7.40;;;;;;;12.42;65.59;101743.62;2080552;83;29325;-72
2022/11/11 14:50:57;;;;;;;18.27;10.43;;;;;;;12.33;65.76;101749.33;2107308;83;27735;-74
2022/11/11 14:53:59;;;;;;;23.73;14.07;;;;;;;12.22;65.79;101750.58;2106007;83;28823;-67
2022/11/11 14:57:06;;;;;;;18.85;11.50;;;;;;;12.12;65.93;101754.03;2106698;83;30503;-69
2022/11/11 15:00:22;;;;;;;21.35;11.80;;;;;;;12.03;66.18;101750.76;2107650;83;32957;-71
2022/11/11 15:03:48;;;;;;;29.25;16.65;;;;;;;11.90;66.36;101740.38;2103621;83;29341;-66
2022/11/11 15:07:00;;;;;;;32.70;17.92;;;;;;;11.79;66.43;101737.14;2107878;83;27745;-68
2022/11/11 15:10:34;;;;;;;38.75;21.30;;;;;;;11.67;66.57;101735.27;2099817;83;28823;-69
2022/11/11 15:14:05;;;;;;;32.75;19.50;;;;;;;11.55;66.79;101733.83;2096856;83;31189;-70
2022/11/11 15:17:16;;;;;;;35.00;20.27;;;;;;;11.44;66.94;101735.97;2033076;86;33184;-68
2022/11/11 15:21:08;;;;;;;37.45;20.52;;;;;;;11.32;67.11;101738.55;2032855;86;29406;-71
2022/11/11 15:24:40;;;;;;;27.13;16.48;;;;;;;11.23;67.29;101754.45;2035287;86;27700;-71
2022/11/11 15:27:59;;;;;;;30.92;17.05;;;;;;;11.09;67.52;101752.16;2032340;86;28749;-68
2022/11/11 15:31:36;;;;;;;29.90;17.45;;;;;;;10.98;67.59;101752.06;2032949;86;31121;-69
2022/11/11 15:34:52;;;;;;;36.25;18.23;;;;;;;10.88;67.76;101751.44;2033662;86;33791;-68
2022/11/11 15:37:57;;;;;;;41.80;24.82;;;;;;;10.76;67.90;101746.81;2032165;86;29500;-67
2022/11/11 15:40:59;;;;;;;;;;;;;;;10.66;68.08;101739.95;2033629;85;27822;-67
2022/11/11 15:44:00;;;;;;;45.30;24.10;;;;;;;10.55;68.32;101733.53;2031877;85;29671;-67